sensor_id;sensor_type;location;lat;lon;timestamp;pressure;altitude;pressure_sealevel;temperature
67966;BMP280;54749;47.850;9.002;2023-09-08T00:00:07;96187.47;;;17.57
67966;BMP280;54749;47.850;9.002;2023-09-08T00:02:56;96186.13;;;17.53
67966;BMP280;54749;47.850;9.002;2023-09-08T00:05:23;96180.38;;;17.52
67966;BMP280;54749;47.850;9.002;2023-09-08T00:07:53;96185.81;;;17.49
67966;BMP280;54749;47.850;9.002;2023-09-08T00:10:20;96185.59;;;17.42
67966;BMP280;54749;47.850;9.002;2023-09-08T00:12:47;96187.94;;;17.36
67966;BMP280;54749;47.850;9.002;2023-09-08T00:15:15;96190.31;;;17.30
67966;BMP280;54749;47.850;9.002;2023-09-08T00:17:42;96185.78;;;17.24
67966;BMP280;54749;47.850;9.002;2023-09-08T00:20:09;96177.25;;;17.16
67966;BMP280;54749;47.850;9.002;2023-09-08T00:22:37;96188.38;;;17.07
67966;BMP280;54749;47.850;9.002;2023-09-08T00:25:05;96183.19;;;16.99
67966;BMP280;54749;47.850;9.002;2023-09-08T00:27:32;96175.84;;;16.96
67966;BMP280;54749;47.850;9.002;2023-09-08T00:30:00;96176.13;;;16.93
67966;BMP280;54749;47.850;9.002;2023-09-08T00:32:28;96177.34;;;16.89
67966;BMP280;54749;47.850;9.002;2023-09-08T00:34:56;96170.56;;;16.81
67966;BMP280;54749;47.850;9.002;2023-09-08T00:37:23;96163.50;;;16.75
67966;BMP280;54749;47.850;9.002;2023-09-08T00:39:51;96176.34;;;16.65
67966;BMP280;54749;47.850;9.002;2023-09-08T00:42:18;96175.97;;;16.61
67966;BMP280;54749;47.850;9.002;2023-09-08T00:44:45;96172.97;;;16.48
67966;BMP280;54749;47.850;9.002;2023-09-08T00:47:12;96172.75;;;16.42
67966;BMP280;54749;47.850;9.002;2023-09-08T00:49:40;96164.06;;;16.35
67966;BMP280;54749;47.850;9.002;2023-09-08T00:52:07;96168.00;;;16.30
67966;BMP280;54749;47.850;9.002;2023-09-08T00:54:34;96166.56;;;16.27
67966;BMP280;54749;47.850;9.002;2023-09-08T00:57:02;96161.72;;;16.24
67966;BMP280;54749;47.850;9.002;2023-09-08T00:59:32;96176.38;;;16.22
67966;BMP280;54749;47.850;9.002;2023-09-08T01:02:01;96166.59;;;16.18
67966;BMP280;54749;47.850;9.002;2023-09-08T01:04:29;96162.88;;;16.13
67966;BMP280;54749;47.850;9.002;2023-09-08T01:06:57;96164.09;;;16.09
67966;BMP280;54749;47.850;9.002;2023-09-08T01:09:25;96169.13;;;16.01
67966;BMP280;54749;47.850;9.002;2023-09-08T01:11:53;96175.03;;;15.92
67966;BMP280;54749;47.850;9.002;2023-09-08T01:14:22;96173.97;;;15.85
67966;BMP280;54749;47.850;9.002;2023-09-08T01:16:49;96172.25;;;15.86
67966;BMP280;54749;47.850;9.002;2023-09-08T01:19:17;96178.69;;;15.80
67966;BMP280;54749;47.850;9.002;2023-09-08T01:26:59;96178.88;;;15.70
67966;BMP280;54749;47.850;9.002;2023-09-08T01:29:27;96168.03;;;15.68
67966;BMP280;54749;47.850;9.002;2023-09-08T01:31:56;96163.22;;;15.65
67966;BMP280;54749;47.850;9.002;2023-09-08T01:34:25;96165.38;;;15.60
67966;BMP280;54749;47.850;9.002;2023-09-08T01:36:53;96168.06;;;15.59
67966;BMP280;54749;47.850;9.002;2023-09-08T01:39:20;96164.06;;;15.56
67966;BMP280;54749;47.850;9.002;2023-09-08T01:41:47;96165.94;;;15.54
67966;BMP280;54749;47.850;9.002;2023-09-08T01:44:15;96171.69;;;15.56
67966;BMP280;54749;47.850;9.002;2023-09-08T01:46:42;96160.84;;;15.54
67966;BMP280;54749;47.850;9.002;2023-09-08T01:49:09;96157.94;;;15.49
67966;BMP280;54749;47.850;9.002;2023-09-08T01:51:36;96153.09;;;15.46
67966;BMP280;54749;47.850;9.002;2023-09-08T01:54:03;96151.47;;;15.45
67966;BMP280;54749;47.850;9.002;2023-09-08T01:56:30;96145.88;;;15.42
67966;BMP280;54749;47.850;9.002;2023-09-08T01:58:58;96152.56;;;15.43
67966;BMP280;54749;47.850;9.002;2023-09-08T02:01:26;96153.09;;;15.46
67966;BMP280;54749;47.850;9.002;2023-09-08T02:03:54;96142.91;;;15.46
67966;BMP280;54749;47.850;9.002;2023-09-08T02:06:20;96148.81;;;15.47
67966;BMP280;54749;47.850;9.002;2023-09-08T02:08:48;96148.00;;;15.46
67966;BMP280;54749;47.850;9.002;2023-09-08T02:11:15;96156.31;;;15.48
67966;BMP280;54749;47.850;9.002;2023-09-08T02:13:43;96153.78;;;15.48
67966;BMP280;54749;47.850;9.002;2023-09-08T02:16:14;96149.72;;;15.46
67966;BMP280;54749;47.850;9.002;2023-09-08T02:18:43;96139.13;;;15.50
67966;BMP280;54749;47.850;9.002;2023-09-08T02:21:11;96139.13;;;15.50
67966;BMP280;54749;47.850;9.002;2023-09-08T02:23:38;96148.16;;;15.45
67966;BMP280;54749;47.850;9.002;2023-09-08T02:26:06;96144.25;;;15.41
67966;BMP280;54749;47.850;9.002;2023-09-08T02:28:33;96152.06;;;15.40
67966;BMP280;54749;47.850;9.002;2023-09-08T02:31:01;96144.97;;;15.34
67966;BMP280;54749;47.850;9.002;2023-09-08T02:33:29;96156.38;;;15.30
67966;BMP280;54749;47.850;9.002;2023-09-08T02:36:02;96155.31;;;15.23
67966;BMP280;54749;47.850;9.002;2023-09-08T02:38:29;96160.66;;;15.20
67966;BMP280;54749;47.850;9.002;2023-09-08T02:40:56;96159.63;;;15.13
67966;BMP280;54749;47.850;9.002;2023-09-08T02:43:24;96165.25;;;15.07
67966;BMP280;54749;47.850;9.002;2023-09-08T02:45:51;96155.91;;;14.99
67966;BMP280;54749;47.850;9.002;2023-09-08T02:48:19;96161.78;;;14.90
67966;BMP280;54749;47.850;9.002;2023-09-08T02:50:47;96161.53;;;14.84
67966;BMP280;54749;47.850;9.002;2023-09-08T02:53:14;96153.38;;;14.80
67966;BMP280;54749;47.850;9.002;2023-09-08T02:55:41;96154.81;;;14.83
67966;BMP280;54749;47.850;9.002;2023-09-08T02:58:08;96159.63;;;14.86
67966;BMP280;54749;47.850;9.002;2023-09-08T03:00:35;96152.00;;;14.86
67966;BMP280;54749;47.850;9.002;2023-09-08T03:03:03;96156.28;;;14.85
67966;BMP280;54749;47.850;9.002;2023-09-08T03:05:31;96165.53;;;14.86
67966;BMP280;54749;47.850;9.002;2023-09-08T03:07:59;96153.09;;;14.83
67966;BMP280;54749;47.850;9.002;2023-09-08T03:10:26;96161.00;;;14.80
67966;BMP280;54749;47.850;9.002;2023-09-08T03:12:56;96167.03;;;14.79
67966;BMP280;54749;47.850;9.002;2023-09-08T03:15:24;96150.81;;;14.80
67966;BMP280;54749;47.850;9.002;2023-09-08T03:17:56;96166.09;;;14.80
67966;BMP280;54749;47.850;9.002;2023-09-08T03:20:25;96162.06;;;14.78
67966;BMP280;54749;47.850;9.002;2023-09-08T03:22:55;96157.09;;;14.76
67966;BMP280;54749;47.850;9.002;2023-09-08T03:25:22;96163.38;;;14.72
67966;BMP280;54749;47.850;9.002;2023-09-08T03:27:49;96167.44;;;14.75
67966;BMP280;54749;47.850;9.002;2023-09-08T03:30:16;96160.59;;;14.75
67966;BMP280;54749;47.850;9.002;2023-09-08T03:32:45;96162.88;;;14.78
67966;BMP280;54749;47.850;9.002;2023-09-08T03:35:12;96156.56;;;14.82
67966;BMP280;54749;47.850;9.002;2023-09-08T03:37:41;96150.13;;;14.88
67966;BMP280;54749;47.850;9.002;2023-09-08T03:40:08;96147.22;;;14.92
67966;BMP280;54749;47.850;9.002;2023-09-08T03:42:36;96153.63;;;14.96
67966;BMP280;54749;47.850;9.002;2023-09-08T03:45:04;96146.81;;;14.96
67966;BMP280;54749;47.850;9.002;2023-09-08T03:47:32;96149.34;;;14.96
67966;BMP280;54749;47.850;9.002;2023-09-08T03:49:59;96147.88;;;14.94
67966;BMP280;54749;47.850;9.002;2023-09-08T03:52:27;96146.50;;;14.90
67966;BMP280;54749;47.850;9.002;2023-09-08T03:54:54;96151.06;;;14.87
67966;BMP280;54749;47.850;9.002;2023-09-08T03:57:21;96148.66;;;14.85
67966;BMP280;54749;47.850;9.002;2023-09-08T03:59:48;96151.34;;;14.84
67966;BMP280;54749;47.850;9.002;2023-09-08T04:02:15;96150.81;;;14.80
67966;BMP280;54749;47.850;9.002;2023-09-08T04:04:42;96155.09;;;14.80
67966;BMP280;54749;47.850;9.002;2023-09-08T04:07:10;96160.31;;;14.78
67966;BMP280;54749;47.850;9.002;2023-09-08T04:09:37;96162.19;;;14.76
67966;BMP280;54749;47.850;9.002;2023-09-08T04:12:04;96161.81;;;14.72
67966;BMP280;54749;47.850;9.002;2023-09-08T04:14:32;96163.00;;;14.68
67966;BMP280;54749;47.850;9.002;2023-09-08T04:17:02;96171.19;;;14.62
67966;BMP280;54749;47.850;9.002;2023-09-08T04:19:30;96181.88;;;14.56
67966;BMP280;54749;47.850;9.002;2023-09-08T04:21:57;96171.44;;;14.50
67966;BMP280;54749;47.850;9.002;2023-09-08T04:24:24;96166.47;;;14.48
67966;BMP280;54749;47.850;9.002;2023-09-08T04:26:52;96171.69;;;14.47
67966;BMP280;54749;47.850;9.002;2023-09-08T04:29:19;96172.22;;;14.50
67966;BMP280;54749;47.850;9.002;2023-09-08T04:31:46;96169.69;;;14.50
67966;BMP280;54749;47.850;9.002;2023-09-08T04:34:14;96178.00;;;14.52
67966;BMP280;54749;47.850;9.002;2023-09-08T04:36:41;96181.47;;;14.51
67966;BMP280;54749;47.850;9.002;2023-09-08T04:39:09;96184.00;;;14.51
67966;BMP280;54749;47.850;9.002;2023-09-08T04:41:38;96180.53;;;14.52
67966;BMP280;54749;47.850;9.002;2023-09-08T04:44:06;96175.84;;;14.48
67966;BMP280;54749;47.850;9.002;2023-09-08T04:46:35;96172.78;;;14.44
67966;BMP280;54749;47.850;9.002;2023-09-08T04:49:03;96181.34;;;14.43
67966;BMP280;54749;47.850;9.002;2023-09-08T04:51:30;96183.88;;;14.43
67966;BMP280;54749;47.850;9.002;2023-09-08T04:53:57;96178.91;;;14.42
67966;BMP280;54749;47.850;9.002;2023-09-08T04:56:24;96174.63;;;14.42
67966;BMP280;54749;47.850;9.002;2023-09-08T04:58:51;96175.59;;;14.41
67966;BMP280;54749;47.850;9.002;2023-09-08T05:01:20;96189.91;;;14.42
67966;BMP280;54749;47.850;9.002;2023-09-08T05:03:47;96184.56;;;14.45
67966;BMP280;54749;47.850;9.002;2023-09-08T05:06:14;96178.94;;;14.51
67966;BMP280;54749;47.850;9.002;2023-09-08T05:08:42;96189.09;;;14.60
67966;BMP280;54749;47.850;9.002;2023-09-08T05:11:11;96193.91;;;14.72
67966;BMP280;54749;47.850;9.002;2023-09-08T05:13:38;96197.69;;;14.87
67966;BMP280;54749;47.850;9.002;2023-09-08T05:16:05;96199.69;;;15.02
67966;BMP280;54749;47.850;9.002;2023-09-08T05:18:44;96188.97;;;15.17
67966;BMP280;54749;47.850;9.002;2023-09-08T05:21:12;96193.63;;;15.31
67966;BMP280;54749;47.850;9.002;2023-09-08T05:23:41;96182.84;;;15.46
67966;BMP280;54749;47.850;9.002;2023-09-08T05:26:10;96179.06;;;15.59
67966;BMP280;54749;47.850;9.002;2023-09-08T05:28:37;96183.44;;;15.76
67966;BMP280;54749;47.850;9.002;2023-09-08T05:31:06;96187.78;;;15.92
67966;BMP280;54749;47.850;9.002;2023-09-08T05:33:34;96178.84;;;16.14
67966;BMP280;54749;47.850;9.002;2023-09-08T05:36:02;96185.56;;;16.49
67966;BMP280;54749;47.850;9.002;2023-09-08T05:38:29;96188.59;;;16.79
67966;BMP280;54749;47.850;9.002;2023-09-08T05:40:56;96184.88;;;17.08
67966;BMP280;54749;47.850;9.002;2023-09-08T05:43:25;96198.81;;;17.38
67966;BMP280;54749;47.850;9.002;2023-09-08T05:45:53;96187.16;;;17.85
67966;BMP280;54749;47.850;9.002;2023-09-08T05:48:20;96191.44;;;18.09
67966;BMP280;54749;47.850;9.002;2023-09-08T05:50:48;96183.03;;;18.40
67966;BMP280;54749;47.850;9.002;2023-09-08T05:53:15;96178.50;;;18.90
67966;BMP280;54749;47.850;9.002;2023-09-08T05:55:43;96182.84;;;19.13
67966;BMP280;54749;47.850;9.002;2023-09-08T05:58:10;96180.25;;;18.97
67966;BMP280;54749;47.850;9.002;2023-09-08T06:00:38;96190.03;;;18.78
67966;BMP280;54749;47.850;9.002;2023-09-08T06:03:05;96187.16;;;18.74
67966;BMP280;54749;47.850;9.002;2023-09-08T06:05:33;96190.19;;;18.69
67966;BMP280;54749;47.850;9.002;2023-09-08T06:07:59;96190.63;;;18.65
67966;BMP280;54749;47.850;9.002;2023-09-08T06:10:34;96191.72;;;18.62
67966;BMP280;54749;47.850;9.002;2023-09-08T06:13:01;96180.56;;;19.41
67966;BMP280;54749;47.850;9.002;2023-09-08T06:15:29;96162.22;;;20.80
67966;BMP280;54749;47.850;9.002;2023-09-08T06:17:57;96160.09;;;22.05
67966;BMP280;54749;47.850;9.002;2023-09-08T06:20:24;96159.75;;;23.32
67966;BMP280;54749;47.850;9.002;2023-09-08T06:22:52;96146.28;;;24.29
67966;BMP280;54749;47.850;9.002;2023-09-08T06:25:20;96144.75;;;25.25
67966;BMP280;54749;47.850;9.002;2023-09-08T06:27:47;96146.31;;;25.89
67966;BMP280;54749;47.850;9.002;2023-09-08T06:30:14;96132.53;;;26.63
67966;BMP280;54749;47.850;9.002;2023-09-08T06:32:43;96128.47;;;27.33
67966;BMP280;54749;47.850;9.002;2023-09-08T06:35:11;96130.09;;;27.99
67966;BMP280;54749;47.850;9.002;2023-09-08T06:37:38;96117.34;;;28.62
67966;BMP280;54749;47.850;9.002;2023-09-08T06:40:07;96122.41;;;29.14
67966;BMP280;54749;47.850;9.002;2023-09-08T06:42:34;96120.69;;;29.71
67966;BMP280;54749;47.850;9.002;2023-09-08T06:45:15;96109.00;;;30.18
67966;BMP280;54749;47.850;9.002;2023-09-08T06:47:43;96107.69;;;30.81
67966;BMP280;54749;47.850;9.002;2023-09-08T06:50:11;96099.53;;;31.64
67966;BMP280;54749;47.850;9.002;2023-09-08T06:52:38;96097.88;;;32.32
67966;BMP280;54749;47.850;9.002;2023-09-08T06:55:05;96098.41;;;33.27
67966;BMP280;54749;47.850;9.002;2023-09-08T06:57:33;96104.59;;;33.78
67966;BMP280;54749;47.850;9.002;2023-09-08T07:00:01;96101.31;;;33.92
67966;BMP280;54749;47.850;9.002;2023-09-08T07:02:28;96094.91;;;33.78
67966;BMP280;54749;47.850;9.002;2023-09-08T07:04:55;96096.06;;;33.92
67966;BMP280;54749;47.850;9.002;2023-09-08T07:07:23;96111.91;;;34.12
67966;BMP280;54749;47.850;9.002;2023-09-08T07:09:51;96101.75;;;34.20
67966;BMP280;54749;47.850;9.002;2023-09-08T07:12:18;96092.88;;;35.00
67966;BMP280;54749;47.850;9.002;2023-09-08T07:14:45;96099.00;;;35.78
67966;BMP280;54749;47.850;9.002;2023-09-08T07:17:12;96101.06;;;35.96
67966;BMP280;54749;47.850;9.002;2023-09-08T07:19:39;96102.13;;;35.80
67966;BMP280;54749;47.850;9.002;2023-09-08T07:22:06;96100.16;;;36.54
67966;BMP280;54749;47.850;9.002;2023-09-08T07:24:34;96095.72;;;37.01
67966;BMP280;54749;47.850;9.002;2023-09-08T07:27:01;96086.00;;;37.95
67966;BMP280;54749;47.850;9.002;2023-09-08T07:29:29;96078.84;;;38.87
67966;BMP280;54749;47.850;9.002;2023-09-08T07:31:57;96075.22;;;39.19
67966;BMP280;54749;47.850;9.002;2023-09-08T07:34:24;96097.03;;;39.11
67966;BMP280;54749;47.850;9.002;2023-09-08T07:36:51;96077.00;;;39.72
67966;BMP280;54749;47.850;9.002;2023-09-08T07:39:19;96079.47;;;40.13
67966;BMP280;54749;47.850;9.002;2023-09-08T07:41:46;96074.81;;;41.10
67966;BMP280;54749;47.850;9.002;2023-09-08T07:44:14;96072.25;;;41.40
67966;BMP280;54749;47.850;9.002;2023-09-08T07:46:41;96083.84;;;41.44
67966;BMP280;54749;47.850;9.002;2023-09-08T07:49:09;96072.88;;;41.59
67966;BMP280;54749;47.850;9.002;2023-09-08T07:51:36;96085.19;;;40.33
67966;BMP280;54749;47.850;9.002;2023-09-08T07:54:05;96080.84;;;40.89
67966;BMP280;54749;47.850;9.002;2023-09-08T07:56:32;96067.59;;;41.88
67966;BMP280;54749;47.850;9.002;2023-09-08T07:59:00;96074.22;;;42.67
67966;BMP280;54749;47.850;9.002;2023-09-08T08:01:27;96076.34;;;42.94
67966;BMP280;54749;47.850;9.002;2023-09-08T08:03:54;96072.72;;;42.99
67966;BMP280;54749;47.850;9.002;2023-09-08T08:06:21;96077.34;;;42.68
67966;BMP280;54749;47.850;9.002;2023-09-08T08:08:48;96073.56;;;42.69
67966;BMP280;54749;47.850;9.002;2023-09-08T08:11:16;96076.16;;;43.74
67966;BMP280;54749;47.850;9.002;2023-09-08T08:13:47;96072.81;;;44.10
67966;BMP280;54749;47.850;9.002;2023-09-08T08:16:14;96063.81;;;44.22
67966;BMP280;54749;47.850;9.002;2023-09-08T08:18:41;96067.28;;;44.23
67966;BMP280;54749;47.850;9.002;2023-09-08T08:21:08;96076.25;;;44.83
67966;BMP280;54749;47.850;9.002;2023-09-08T08:23:36;96080.56;;;44.96
67966;BMP280;54749;47.850;9.002;2023-09-08T08:26:05;96074.75;;;44.74
67966;BMP280;54749;47.850;9.002;2023-09-08T08:28:32;96074.78;;;44.29
67966;BMP280;54749;47.850;9.002;2023-09-08T08:30:59;96076.97;;;44.72
67966;BMP280;54749;47.850;9.002;2023-09-08T08:33:27;96067.31;;;44.51
67966;BMP280;54749;47.850;9.002;2023-09-08T08:35:56;96074.13;;;44.77
67966;BMP280;54749;47.850;9.002;2023-09-08T08:38:23;96069.00;;;45.32
67966;BMP280;54749;47.850;9.002;2023-09-08T08:40:50;96063.09;;;45.78
67966;BMP280;54749;47.850;9.002;2023-09-08T08:43:18;96063.81;;;45.87
67966;BMP280;54749;47.850;9.002;2023-09-08T08:45:47;96068.78;;;46.20
67966;BMP280;54749;47.850;9.002;2023-09-08T08:48:15;96064.66;;;46.10
67966;BMP280;54749;47.850;9.002;2023-09-08T08:50:45;96065.56;;;46.14
67966;BMP280;54749;47.850;9.002;2023-09-08T08:53:13;96058.31;;;46.15
67966;BMP280;54749;47.850;9.002;2023-09-08T08:55:41;96054.97;;;46.18
67966;BMP280;54749;47.850;9.002;2023-09-08T08:58:09;96065.78;;;45.38
67966;BMP280;54749;47.850;9.002;2023-09-08T09:00:36;96064.44;;;45.32
67966;BMP280;54749;47.850;9.002;2023-09-08T09:03:05;96066.06;;;45.05
67966;BMP280;54749;47.850;9.002;2023-09-08T09:05:41;96064.84;;;45.42
67966;BMP280;54749;47.850;9.002;2023-09-08T09:08:15;96072.53;;;45.44
67966;BMP280;54749;47.850;9.002;2023-09-08T09:10:43;96061.63;;;44.89
67966;BMP280;54749;47.850;9.002;2023-09-08T09:13:10;96066.25;;;45.00
67966;BMP280;54749;47.850;9.002;2023-09-08T09:15:37;96064.56;;;45.55
67966;BMP280;54749;47.850;9.002;2023-09-08T09:18:05;96057.44;;;45.59
67966;BMP280;54749;47.850;9.002;2023-09-08T09:20:33;96060.66;;;45.53
67966;BMP280;54749;47.850;9.002;2023-09-08T09:23:02;96063.59;;;45.40
67966;BMP280;54749;47.850;9.002;2023-09-08T09:25:30;96048.94;;;46.21
67966;BMP280;54749;47.850;9.002;2023-09-08T09:28:00;96051.75;;;46.36
67966;BMP280;54749;47.850;9.002;2023-09-08T09:30:28;96038.47;;;46.74
67966;BMP280;54749;47.850;9.002;2023-09-08T09:33:13;96060.28;;;46.06
67966;BMP280;54749;47.850;9.002;2023-09-08T09:35:46;96059.41;;;46.02
67966;BMP280;54749;47.850;9.002;2023-09-08T09:38:14;96057.22;;;46.39
67966;BMP280;54749;47.850;9.002;2023-09-08T09:40:41;96068.63;;;45.41
67966;BMP280;54749;47.850;9.002;2023-09-08T09:43:09;96053.19;;;45.27
67966;BMP280;54749;47.850;9.002;2023-09-08T09:45:39;96054.78;;;45.91
67966;BMP280;54749;47.850;9.002;2023-09-08T09:48:08;96050.44;;;45.98
67966;BMP280;54749;47.850;9.002;2023-09-08T09:50:37;96055.78;;;45.98
67966;BMP280;54749;47.850;9.002;2023-09-08T09:55:43;96045.16;;;46.22
67966;BMP280;54749;47.850;9.002;2023-09-08T09:58:11;96061.13;;;45.87
67966;BMP280;54749;47.850;9.002;2023-09-08T10:00:38;96056.19;;;45.77
67966;BMP280;54749;47.850;9.002;2023-09-08T10:03:08;96043.56;;;46.09
67966;BMP280;54749;47.850;9.002;2023-09-08T10:05:36;96040.47;;;46.42
67966;BMP280;54749;47.850;9.002;2023-09-08T10:08:04;96041.38;;;46.23
67966;BMP280;54749;47.850;9.002;2023-09-08T10:10:32;96038.50;;;46.51
67966;BMP280;54749;47.850;9.002;2023-09-08T10:13:03;96040.38;;;46.39
67966;BMP280;54749;47.850;9.002;2023-09-08T10:15:33;96043.72;;;45.81
67966;BMP280;54749;47.850;9.002;2023-09-08T10:18:04;96035.84;;;45.96
67966;BMP280;54749;47.850;9.002;2023-09-08T10:20:33;96037.34;;;45.42
67966;BMP280;54749;47.850;9.002;2023-09-08T10:26:02;96038.16;;;45.86
67966;BMP280;54749;47.850;9.002;2023-09-08T10:28:32;96025.47;;;46.49
67966;BMP280;54749;47.850;9.002;2023-09-08T10:31:00;96026.09;;;46.35
67966;BMP280;54749;47.850;9.002;2023-09-08T10:33:30;96039.91;;;45.70
67966;BMP280;54749;47.850;9.002;2023-09-08T10:35:59;96020.50;;;45.93
67966;BMP280;54749;47.850;9.002;2023-09-08T10:38:29;96034.28;;;46.50
67966;BMP280;54749;47.850;9.002;2023-09-08T10:43:45;96020.13;;;45.83
67966;BMP280;54749;47.850;9.002;2023-09-08T10:46:26;96020.13;;;45.51
67966;BMP280;54749;47.850;9.002;2023-09-08T10:48:55;96012.66;;;44.57
67966;BMP280;54749;47.850;9.002;2023-09-08T10:51:24;96025.81;;;44.42
67966;BMP280;54749;47.850;9.002;2023-09-08T10:53:51;96025.00;;;44.41
67966;BMP280;54749;47.850;9.002;2023-09-08T10:56:19;96011.06;;;44.36
67966;BMP280;54749;47.850;9.002;2023-09-08T10:58:51;96015.00;;;44.86
67966;BMP280;54749;47.850;9.002;2023-09-08T11:01:20;96004.91;;;44.92
67966;BMP280;54749;47.850;9.002;2023-09-08T11:03:54;96012.56;;;44.73
67966;BMP280;54749;47.850;9.002;2023-09-08T11:06:21;96013.34;;;43.64
67966;BMP280;54749;47.850;9.002;2023-09-08T11:08:50;96020.78;;;42.09
67966;BMP280;54749;47.850;9.002;2023-09-08T11:11:20;96023.22;;;40.55
67966;BMP280;54749;47.850;9.002;2023-09-08T11:13:47;96028.47;;;39.14
67966;BMP280;54749;47.850;9.002;2023-09-08T11:16:14;96031.28;;;38.23
67966;BMP280;54749;47.850;9.002;2023-09-08T11:18:43;96038.63;;;36.78
67966;BMP280;54749;47.850;9.002;2023-09-08T11:21:10;96038.00;;;36.38
67966;BMP280;54749;47.850;9.002;2023-09-08T11:23:38;96032.84;;;36.19
67966;BMP280;54749;47.850;9.002;2023-09-08T11:26:06;96036.63;;;35.59
67966;BMP280;54749;47.850;9.002;2023-09-08T11:28:33;96036.66;;;35.11
67966;BMP280;54749;47.850;9.002;2023-09-08T11:31:01;96034.19;;;34.66
67966;BMP280;54749;47.850;9.002;2023-09-08T11:33:36;96037.75;;;34.31
67966;BMP280;54749;47.850;9.002;2023-09-08T11:36:12;96030.88;;;34.20
67966;BMP280;54749;47.850;9.002;2023-09-08T11:38:45;96037.94;;;34.14
67966;BMP280;54749;47.850;9.002;2023-09-08T11:41:12;96034.69;;;33.58
67966;BMP280;54749;47.850;9.002;2023-09-08T11:43:40;96040.59;;;33.39
67966;BMP280;54749;47.850;9.002;2023-09-08T11:46:07;96039.22;;;33.31
67966;BMP280;54749;47.850;9.002;2023-09-08T11:48:34;96040.47;;;33.24
67966;BMP280;54749;47.850;9.002;2023-09-08T11:51:02;96037.53;;;33.21
67966;BMP280;54749;47.850;9.002;2023-09-08T11:53:30;96038.03;;;32.87
67966;BMP280;54749;47.850;9.002;2023-09-08T11:56:00;96046.78;;;32.72
67966;BMP280;54749;47.850;9.002;2023-09-08T11:58:27;96037.31;;;32.71
67966;BMP280;54749;47.850;9.002;2023-09-08T12:00:55;96033.13;;;32.70
67966;BMP280;54749;47.850;9.002;2023-09-08T12:03:22;96038.56;;;32.63
67966;BMP280;54749;47.850;9.002;2023-09-08T12:05:52;96023.38;;;32.39
67966;BMP280;54749;47.850;9.002;2023-09-08T12:08:20;96024.47;;;32.22
67966;BMP280;54749;47.850;9.002;2023-09-08T12:10:47;96029.94;;;32.21
67966;BMP280;54749;47.850;9.002;2023-09-08T12:13:21;96026.00;;;32.39
67966;BMP280;54749;47.850;9.002;2023-09-08T12:15:48;96025.31;;;32.49
67966;BMP280;54749;47.850;9.002;2023-09-08T12:18:15;96020.69;;;32.35
67966;BMP280;54749;47.850;9.002;2023-09-08T12:20:43;96025.50;;;32.21
67966;BMP280;54749;47.850;9.002;2023-09-08T12:23:19;96026.97;;;32.13
67966;BMP280;54749;47.850;9.002;2023-09-08T12:28:17;96021.94;;;32.06
67966;BMP280;54749;47.850;9.002;2023-09-08T12:30:44;96015.03;;;32.01
67966;BMP280;54749;47.850;9.002;2023-09-08T12:33:12;96017.03;;;31.57
67966;BMP280;54749;47.850;9.002;2023-09-08T12:35:46;96016.38;;;31.45
67966;BMP280;54749;47.850;9.002;2023-09-08T12:38:13;96014.69;;;31.39
67966;BMP280;54749;47.850;9.002;2023-09-08T12:40:40;96010.75;;;31.37
67966;BMP280;54749;47.850;9.002;2023-09-08T12:43:08;96009.84;;;31.31
67966;BMP280;54749;47.850;9.002;2023-09-08T12:45:54;95997.81;;;31.30
67966;BMP280;54749;47.850;9.002;2023-09-08T12:48:22;96010.41;;;31.33
67966;BMP280;54749;47.850;9.002;2023-09-08T12:50:49;95998.00;;;31.24
67966;BMP280;54749;47.850;9.002;2023-09-08T12:53:16;95997.34;;;31.17
67966;BMP280;54749;47.850;9.002;2023-09-08T12:55:46;95988.25;;;31.20
67966;BMP280;54749;47.850;9.002;2023-09-08T12:58:13;95988.34;;;31.25
67966;BMP280;54749;47.850;9.002;2023-09-08T13:00:40;95987.28;;;31.26
67966;BMP280;54749;47.850;9.002;2023-09-08T13:03:08;95982.38;;;31.13
67966;BMP280;54749;47.850;9.002;2023-09-08T13:05:35;95987.94;;;31.00
67966;BMP280;54749;47.850;9.002;2023-09-08T13:08:04;95990.66;;;30.78
67966;BMP280;54749;47.850;9.002;2023-09-08T13:10:31;95984.06;;;30.43
67966;BMP280;54749;47.850;9.002;2023-09-08T13:12:58;95989.44;;;30.37
67966;BMP280;54749;47.850;9.002;2023-09-08T13:15:25;95993.53;;;30.33
67966;BMP280;54749;47.850;9.002;2023-09-08T13:17:52;95983.28;;;30.43
67966;BMP280;54749;47.850;9.002;2023-09-08T13:20:19;95976.47;;;30.42
67966;BMP280;54749;47.850;9.002;2023-09-08T13:22:47;95981.22;;;30.45
67966;BMP280;54749;47.850;9.002;2023-09-08T13:25:14;95981.97;;;30.29
67966;BMP280;54749;47.850;9.002;2023-09-08T13:27:41;95981.28;;;30.23
67966;BMP280;54749;47.850;9.002;2023-09-08T13:30:15;95979.47;;;30.34
67966;BMP280;54749;47.850;9.002;2023-09-08T13:32:44;95975.38;;;30.38
67966;BMP280;54749;47.850;9.002;2023-09-08T13:35:12;95971.81;;;30.44
67966;BMP280;54749;47.850;9.002;2023-09-08T13:37:39;95967.44;;;30.33
67966;BMP280;54749;47.850;9.002;2023-09-08T13:40:07;95967.13;;;30.19
67966;BMP280;54749;47.850;9.002;2023-09-08T13:42:36;95973.47;;;30.23
67966;BMP280;54749;47.850;9.002;2023-09-08T13:45:04;95962.44;;;30.32
67966;BMP280;54749;47.850;9.002;2023-09-08T13:47:31;95965.50;;;30.29
67966;BMP280;54749;47.850;9.002;2023-09-08T13:50:00;95971.00;;;30.16
67966;BMP280;54749;47.850;9.002;2023-09-08T13:52:31;95971.13;;;30.10
67966;BMP280;54749;47.850;9.002;2023-09-08T13:55:03;95970.81;;;30.07
67966;BMP280;54749;47.850;9.002;2023-09-08T13:57:51;95970.56;;;29.81
67966;BMP280;54749;47.850;9.002;2023-09-08T14:00:22;95971.69;;;29.85
67966;BMP280;54749;47.850;9.002;2023-09-08T14:02:51;95968.59;;;29.88
67966;BMP280;54749;47.850;9.002;2023-09-08T14:05:24;95976.09;;;29.84
67966;BMP280;54749;47.850;9.002;2023-09-08T14:07:56;95971.16;;;29.83
67966;BMP280;54749;47.850;9.002;2023-09-08T14:10:42;95961.84;;;29.64
67966;BMP280;54749;47.850;9.002;2023-09-08T14:13:18;95965.38;;;29.70
67966;BMP280;54749;47.850;9.002;2023-09-08T14:15:45;95962.28;;;29.72
67966;BMP280;54749;47.850;9.002;2023-09-08T14:18:12;95961.50;;;29.72
67966;BMP280;54749;47.850;9.002;2023-09-08T14:20:41;95944.59;;;29.74
67966;BMP280;54749;47.850;9.002;2023-09-08T14:23:09;95959.63;;;29.56
67966;BMP280;54749;47.850;9.002;2023-09-08T14:25:36;95956.53;;;29.59
67966;BMP280;54749;47.850;9.002;2023-09-08T14:28:03;95953.72;;;29.61
67966;BMP280;54749;47.850;9.002;2023-09-08T14:30:34;95947.94;;;29.59